Terminal Aerodrome Forecast
Issued by NWS Hastings, NE

Home | Current Version | Previous Version | Text Only | Print | Product List | Glossary On
Versions: 1 2 3 4 5 6 7 8 9 10 11 12 13 14 15 16 17 18 19 20 21 22 23 24 25 26 27 28
000
FTUS43 KGID 180540
TAFGRI
TAF
KGRI 180540Z 1806/1906 12006KT P6SM FEW015 SCT250
      TEMPO 1807/1810 5SM BR
     FM181000 13006KT 2SM BR SCT006 OVC010
      TEMPO 1810/1814 1/2SM FG OVC006
     FM181600 15011G18KT P6SM OVC035
     FM190000 15011KT P6SM SCT250=

USA.gov is the U.S. government's official web portal to all federal, state and local government web resources and services.